sensor_id;sensor_type;location;lat;lon;timestamp;P1;durP1;ratioP1;P2;durP2;ratioP2
67941;SDS011;54731;42.600;23.476;2022-12-18T00:01:48;13.10;;;7.28;;
67941;SDS011;54731;42.600;23.476;2022-12-18T00:04:22;21.08;;;9.52;;
67941;SDS011;54731;42.600;23.476;2022-12-18T00:06:49;10.07;;;5.47;;
67941;SDS011;54731;42.600;23.476;2022-12-18T00:09:18;8.50;;;4.95;;
67941;SDS011;54731;42.600;23.476;2022-12-18T00:11:48;18.40;;;9.52;;
67941;SDS011;54731;42.600;23.476;2022-12-18T00:14:14;16.40;;;9.13;;
67941;SDS011;54731;42.600;23.476;2022-12-18T00:16:42;15.73;;;8.20;;
67941;SDS011;54731;42.600;23.476;2022-12-18T00:19:11;9.75;;;6.55;;
67941;SDS011;54731;42.600;23.476;2022-12-18T00:21:43;10.68;;;5.90;;
67941;SDS011;54731;42.600;23.476;2022-12-18T00:24:13;10.40;;;5.70;;
67941;SDS011;54731;42.600;23.476;2022-12-18T00:26:44;9.05;;;4.97;;
67941;SDS011;54731;42.600;23.476;2022-12-18T00:29:13;9.93;;;5.80;;
67941;SDS011;54731;42.600;23.476;2022-12-18T00:31:39;14.45;;;7.38;;
67941;SDS011;54731;42.600;23.476;2022-12-18T00:34:09;18.45;;;9.38;;
67941;SDS011;54731;42.600;23.476;2022-12-18T00:36:36;19.88;;;10.32;;
67941;SDS011;54731;42.600;23.476;2022-12-18T00:39:07;37.10;;;13.77;;
67941;SDS011;54731;42.600;23.476;2022-12-18T00:41:46;38.35;;;15.73;;
67941;SDS011;54731;42.600;23.476;2022-12-18T00:44:17;15.63;;;7.10;;
67941;SDS011;54731;42.600;23.476;2022-12-18T00:46:49;8.05;;;4.55;;
67941;SDS011;54731;42.600;23.476;2022-12-18T00:49:30;13.27;;;6.00;;
67941;SDS011;54731;42.600;23.476;2022-12-18T00:52:33;20.87;;;9.47;;
67941;SDS011;54731;42.600;23.476;2022-12-18T01:01:07;11.98;;;6.53;;
67941;SDS011;54731;42.600;23.476;2022-12-18T01:03:40;17.90;;;9.80;;
67941;SDS011;54731;42.600;23.476;2022-12-18T01:06:20;11.40;;;6.20;;
67941;SDS011;54731;42.600;23.476;2022-12-18T01:08:48;11.18;;;6.03;;
67941;SDS011;54731;42.600;23.476;2022-12-18T01:11:25;10.15;;;5.28;;
67941;SDS011;54731;42.600;23.476;2022-12-18T01:13:55;26.00;;;11.55;;
67941;SDS011;54731;42.600;23.476;2022-12-18T01:16:21;7.17;;;4.17;;
67941;SDS011;54731;42.600;23.476;2022-12-18T01:18:53;11.00;;;5.80;;
67941;SDS011;54731;42.600;23.476;2022-12-18T01:21:22;38.97;;;16.67;;
67941;SDS011;54731;42.600;23.476;2022-12-18T01:23:52;26.52;;;11.45;;
67941;SDS011;54731;42.600;23.476;2022-12-18T01:26:32;9.65;;;4.53;;
67941;SDS011;54731;42.600;23.476;2022-12-18T01:29:01;19.53;;;8.20;;
67941;SDS011;54731;42.600;23.476;2022-12-18T01:31:27;9.27;;;4.82;;
67941;SDS011;54731;42.600;23.476;2022-12-18T01:33:57;9.27;;;5.00;;
67941;SDS011;54731;42.600;23.476;2022-12-18T01:36:26;12.65;;;6.25;;
67941;SDS011;54731;42.600;23.476;2022-12-18T01:38:55;25.48;;;10.50;;
67941;SDS011;54731;42.600;23.476;2022-12-18T01:41:25;16.33;;;7.03;;
67941;SDS011;54731;42.600;23.476;2022-12-18T01:43:56;7.07;;;4.45;;
67941;SDS011;54731;42.600;23.476;2022-12-18T01:46:23;12.93;;;5.65;;
67941;SDS011;54731;42.600;23.476;2022-12-18T01:48:52;19.65;;;9.25;;
67941;SDS011;54731;42.600;23.476;2022-12-18T01:51:21;6.78;;;4.05;;
67941;SDS011;54731;42.600;23.476;2022-12-18T01:53:47;10.07;;;5.23;;
67941;SDS011;54731;42.600;23.476;2022-12-18T01:56:17;13.75;;;6.53;;
67941;SDS011;54731;42.600;23.476;2022-12-18T02:01:22;10.90;;;5.47;;
67941;SDS011;54731;42.600;23.476;2022-12-18T02:03:51;15.00;;;7.10;;
67941;SDS011;54731;42.600;23.476;2022-12-18T02:06:32;10.30;;;5.40;;
67941;SDS011;54731;42.600;23.476;2022-12-18T02:09:12;7.20;;;4.40;;
67941;SDS011;54731;42.600;23.476;2022-12-18T02:11:48;6.30;;;3.80;;
67941;SDS011;54731;42.600;23.476;2022-12-18T02:27:38;7.60;;;4.38;;
67941;SDS011;54731;42.600;23.476;2022-12-18T02:30:05;8.35;;;5.45;;
67941;SDS011;54731;42.600;23.476;2022-12-18T02:32:37;7.63;;;4.37;;
67941;SDS011;54731;42.600;23.476;2022-12-18T02:35:10;6.82;;;3.90;;
67941;SDS011;54731;42.600;23.476;2022-12-18T02:37:39;8.73;;;5.10;;
67941;SDS011;54731;42.600;23.476;2022-12-18T02:40:07;5.25;;;3.10;;
67941;SDS011;54731;42.600;23.476;2022-12-18T02:42:33;7.85;;;4.35;;
67941;SDS011;54731;42.600;23.476;2022-12-18T02:44:59;9.40;;;5.00;;
67941;SDS011;54731;42.600;23.476;2022-12-18T02:47:28;10.37;;;5.47;;
67941;SDS011;54731;42.600;23.476;2022-12-18T02:57:48;9.03;;;5.47;;
67941;SDS011;54731;42.600;23.476;2022-12-18T03:03:05;8.25;;;4.30;;
67941;SDS011;54731;42.600;23.476;2022-12-18T03:05:58;8.83;;;4.60;;
67941;SDS011;54731;42.600;23.476;2022-12-18T03:08:29;9.60;;;4.40;;
67941;SDS011;54731;42.600;23.476;2022-12-18T03:11:06;11.57;;;6.88;;
67941;SDS011;54731;42.600;23.476;2022-12-18T03:13:39;8.63;;;5.35;;
67941;SDS011;54731;42.600;23.476;2022-12-18T03:16:19;6.40;;;4.03;;
67941;SDS011;54731;42.600;23.476;2022-12-18T03:18:54;19.20;;;6.70;;
67941;SDS011;54731;42.600;23.476;2022-12-18T03:21:26;11.10;;;4.85;;
67941;SDS011;54731;42.600;23.476;2022-12-18T03:23:54;9.20;;;4.85;;
67941;SDS011;54731;42.600;23.476;2022-12-18T03:26:27;8.35;;;3.72;;
67941;SDS011;54731;42.600;23.476;2022-12-18T03:28:58;7.18;;;3.85;;
67941;SDS011;54731;42.600;23.476;2022-12-18T03:31:28;7.77;;;4.00;;
67941;SDS011;54731;42.600;23.476;2022-12-18T03:34:00;5.78;;;3.28;;
67941;SDS011;54731;42.600;23.476;2022-12-18T03:36:30;7.32;;;4.30;;
67941;SDS011;54731;42.600;23.476;2022-12-18T03:38:55;7.50;;;3.67;;
67941;SDS011;54731;42.600;23.476;2022-12-18T03:44:05;6.33;;;3.77;;
67941;SDS011;54731;42.600;23.476;2022-12-18T03:46:55;5.75;;;3.40;;
67941;SDS011;54731;42.600;23.476;2022-12-18T03:49:35;7.20;;;3.90;;
67941;SDS011;54731;42.600;23.476;2022-12-18T03:52:16;8.35;;;3.55;;
67941;SDS011;54731;42.600;23.476;2022-12-18T03:54:45;12.27;;;5.50;;
67941;SDS011;54731;42.600;23.476;2022-12-18T03:57:13;8.77;;;4.37;;
67941;SDS011;54731;42.600;23.476;2022-12-18T03:59:43;7.85;;;4.22;;
67941;SDS011;54731;42.600;23.476;2022-12-18T04:02:10;8.30;;;4.28;;
67941;SDS011;54731;42.600;23.476;2022-12-18T04:04:37;8.50;;;4.10;;
67941;SDS011;54731;42.600;23.476;2022-12-18T04:07:04;9.98;;;5.20;;
67941;SDS011;54731;42.600;23.476;2022-12-18T04:09:31;14.03;;;7.47;;
67941;SDS011;54731;42.600;23.476;2022-12-18T04:11:58;11.32;;;6.18;;
67941;SDS011;54731;42.600;23.476;2022-12-18T04:14:24;8.33;;;4.07;;
67941;SDS011;54731;42.600;23.476;2022-12-18T04:16:49;12.02;;;4.80;;
67941;SDS011;54731;42.600;23.476;2022-12-18T04:19:15;10.83;;;5.23;;
67941;SDS011;54731;42.600;23.476;2022-12-18T04:21:43;11.25;;;5.75;;
67941;SDS011;54731;42.600;23.476;2022-12-18T04:24:09;8.07;;;4.47;;
67941;SDS011;54731;42.600;23.476;2022-12-18T04:26:34;7.85;;;4.38;;
67941;SDS011;54731;42.600;23.476;2022-12-18T04:29:00;6.33;;;4.33;;
67941;SDS011;54731;42.600;23.476;2022-12-18T04:31:26;10.87;;;5.80;;
67941;SDS011;54731;42.600;23.476;2022-12-18T04:33:51;11.55;;;5.90;;
67941;SDS011;54731;42.600;23.476;2022-12-18T04:36:17;8.55;;;4.70;;
67941;SDS011;54731;42.600;23.476;2022-12-18T04:38:43;7.97;;;4.43;;
67941;SDS011;54731;42.600;23.476;2022-12-18T04:41:08;8.77;;;5.47;;
67941;SDS011;54731;42.600;23.476;2022-12-18T04:43:34;7.80;;;4.80;;
67941;SDS011;54731;42.600;23.476;2022-12-18T04:46:03;7.57;;;4.65;;
67941;SDS011;54731;42.600;23.476;2022-12-18T04:48:29;8.00;;;4.07;;
67941;SDS011;54731;42.600;23.476;2022-12-18T04:50:54;11.83;;;4.63;;
67941;SDS011;54731;42.600;23.476;2022-12-18T04:53:20;8.63;;;4.40;;
67941;SDS011;54731;42.600;23.476;2022-12-18T04:55:45;9.07;;;4.93;;
67941;SDS011;54731;42.600;23.476;2022-12-18T04:58:11;17.65;;;8.15;;
67941;SDS011;54731;42.600;23.476;2022-12-18T05:00:36;26.70;;;9.87;;
67941;SDS011;54731;42.600;23.476;2022-12-18T05:03:02;14.10;;;7.70;;
67941;SDS011;54731;42.600;23.476;2022-12-18T05:05:27;12.68;;;5.70;;
67941;SDS011;54731;42.600;23.476;2022-12-18T05:07:53;10.90;;;5.97;;
67941;SDS011;54731;42.600;23.476;2022-12-18T05:10:19;10.80;;;5.93;;
67941;SDS011;54731;42.600;23.476;2022-12-18T05:12:44;12.07;;;5.65;;
67941;SDS011;54731;42.600;23.476;2022-12-18T05:15:10;30.50;;;12.63;;
67941;SDS011;54731;42.600;23.476;2022-12-18T05:17:35;13.87;;;7.40;;
67941;SDS011;54731;42.600;23.476;2022-12-18T05:20:00;51.53;;;23.53;;
67941;SDS011;54731;42.600;23.476;2022-12-18T05:22:26;19.70;;;10.23;;
67941;SDS011;54731;42.600;23.476;2022-12-18T05:24:51;33.13;;;15.50;;
67941;SDS011;54731;42.600;23.476;2022-12-18T05:27:17;79.27;;;38.20;;
67941;SDS011;54731;42.600;23.476;2022-12-18T05:29:42;37.63;;;20.17;;
67941;SDS011;54731;42.600;23.476;2022-12-18T05:32:08;33.58;;;19.55;;
67941;SDS011;54731;42.600;23.476;2022-12-18T05:34:33;39.63;;;20.37;;
67941;SDS011;54731;42.600;23.476;2022-12-18T05:36:59;30.57;;;17.57;;
67941;SDS011;54731;42.600;23.476;2022-12-18T05:39:24;88.07;;;26.67;;
67941;SDS011;54731;42.600;23.476;2022-12-18T05:41:50;123.47;;;30.77;;
67941;SDS011;54731;42.600;23.476;2022-12-18T05:44:15;58.60;;;18.73;;
67941;SDS011;54731;42.600;23.476;2022-12-18T05:46:41;126.83;;;42.43;;
67941;SDS011;54731;42.600;23.476;2022-12-18T05:49:06;96.18;;;31.42;;
67941;SDS011;54731;42.600;23.476;2022-12-18T05:51:32;28.85;;;14.73;;
67941;SDS011;54731;42.600;23.476;2022-12-18T05:53:57;22.10;;;10.97;;
67941;SDS011;54731;42.600;23.476;2022-12-18T05:56:23;27.33;;;11.80;;
67941;SDS011;54731;42.600;23.476;2022-12-18T05:58:51;116.78;;;26.65;;
67941;SDS011;54731;42.600;23.476;2022-12-18T06:01:19;19.80;;;11.07;;
67941;SDS011;54731;42.600;23.476;2022-12-18T06:03:46;49.13;;;33.95;;
67941;SDS011;54731;42.600;23.476;2022-12-18T06:06:15;27.13;;;13.57;;
67941;SDS011;54731;42.600;23.476;2022-12-18T06:08:43;17.98;;;10.00;;
67941;SDS011;54731;42.600;23.476;2022-12-18T06:11:08;44.20;;;15.07;;
67941;SDS011;54731;42.600;23.476;2022-12-18T06:13:34;32.70;;;12.17;;
67941;SDS011;54731;42.600;23.476;2022-12-18T06:16:04;25.27;;;11.20;;
67941;SDS011;54731;42.600;23.476;2022-12-18T06:18:30;21.73;;;10.25;;
67941;SDS011;54731;42.600;23.476;2022-12-18T06:20:56;22.10;;;11.68;;
67941;SDS011;54731;42.600;23.476;2022-12-18T06:23:23;12.50;;;6.43;;
67941;SDS011;54731;42.600;23.476;2022-12-18T06:25:48;11.65;;;7.03;;
67941;SDS011;54731;42.600;23.476;2022-12-18T06:28:14;63.00;;;27.25;;
67941;SDS011;54731;42.600;23.476;2022-12-18T06:30:42;46.03;;;29.20;;
67941;SDS011;54731;42.600;23.476;2022-12-18T06:33:08;23.90;;;14.32;;
67941;SDS011;54731;42.600;23.476;2022-12-18T06:35:34;20.47;;;11.60;;
67941;SDS011;54731;42.600;23.476;2022-12-18T06:38:00;28.30;;;15.87;;
67941;SDS011;54731;42.600;23.476;2022-12-18T06:40:26;45.13;;;22.88;;
67941;SDS011;54731;42.600;23.476;2022-12-18T06:42:52;24.23;;;10.80;;
67941;SDS011;54731;42.600;23.476;2022-12-18T06:45:17;70.55;;;33.25;;
67941;SDS011;54731;42.600;23.476;2022-12-18T06:47:43;58.63;;;24.67;;
67941;SDS011;54731;42.600;23.476;2022-12-18T06:50:08;31.50;;;13.33;;
67941;SDS011;54731;42.600;23.476;2022-12-18T06:52:34;47.42;;;21.88;;
67941;SDS011;54731;42.600;23.476;2022-12-18T06:55:00;29.57;;;15.40;;
67941;SDS011;54731;42.600;23.476;2022-12-18T06:57:26;27.20;;;15.45;;
67941;SDS011;54731;42.600;23.476;2022-12-18T06:59:51;32.33;;;16.03;;
67941;SDS011;54731;42.600;23.476;2022-12-18T07:02:17;39.67;;;18.90;;
67941;SDS011;54731;42.600;23.476;2022-12-18T07:04:42;31.43;;;16.10;;
67941;SDS011;54731;42.600;23.476;2022-12-18T07:07:08;15.03;;;8.67;;
67941;SDS011;54731;42.600;23.476;2022-12-18T07:09:33;19.75;;;10.02;;
67941;SDS011;54731;42.600;23.476;2022-12-18T07:11:59;18.88;;;9.90;;
67941;SDS011;54731;42.600;23.476;2022-12-18T07:14:24;21.47;;;11.83;;
67941;SDS011;54731;42.600;23.476;2022-12-18T07:16:50;18.97;;;10.30;;
67941;SDS011;54731;42.600;23.476;2022-12-18T07:19:15;25.10;;;12.37;;
67941;SDS011;54731;42.600;23.476;2022-12-18T07:21:41;96.18;;;35.08;;
67941;SDS011;54731;42.600;23.476;2022-12-18T07:24:06;109.40;;;41.60;;
67941;SDS011;54731;42.600;23.476;2022-12-18T07:26:33;156.18;;;62.10;;
67941;SDS011;54731;42.600;23.476;2022-12-18T07:28:59;146.90;;;53.40;;
67941;SDS011;54731;42.600;23.476;2022-12-18T07:31:33;51.03;;;22.27;;
67941;SDS011;54731;42.600;23.476;2022-12-18T07:34:14;45.83;;;20.65;;
67941;SDS011;54731;42.600;23.476;2022-12-18T07:36:39;53.55;;;25.88;;
67941;SDS011;54731;42.600;23.476;2022-12-18T07:39:28;56.38;;;29.00;;
67941;SDS011;54731;42.600;23.476;2022-12-18T07:42:03;26.90;;;14.80;;
67941;SDS011;54731;42.600;23.476;2022-12-18T07:44:28;20.08;;;9.98;;
67941;SDS011;54731;42.600;23.476;2022-12-18T07:46:54;56.75;;;27.13;;
67941;SDS011;54731;42.600;23.476;2022-12-18T07:49:19;44.97;;;22.40;;
67941;SDS011;54731;42.600;23.476;2022-12-18T07:51:56;20.17;;;11.30;;
67941;SDS011;54731;42.600;23.476;2022-12-18T07:54:39;20.35;;;10.88;;
67941;SDS011;54731;42.600;23.476;2022-12-18T07:57:10;25.90;;;13.98;;
67941;SDS011;54731;42.600;23.476;2022-12-18T07:59:35;27.83;;;13.43;;
67941;SDS011;54731;42.600;23.476;2022-12-18T08:02:01;34.58;;;15.23;;
67941;SDS011;54731;42.600;23.476;2022-12-18T08:04:26;32.57;;;16.70;;
67941;SDS011;54731;42.600;23.476;2022-12-18T08:06:52;35.27;;;17.37;;
67941;SDS011;54731;42.600;23.476;2022-12-18T08:09:17;30.17;;;15.10;;
67941;SDS011;54731;42.600;23.476;2022-12-18T08:11:43;59.25;;;24.83;;
67941;SDS011;54731;42.600;23.476;2022-12-18T08:14:09;70.53;;;24.70;;
67941;SDS011;54731;42.600;23.476;2022-12-18T08:16:34;46.65;;;19.30;;
67941;SDS011;54731;42.600;23.476;2022-12-18T08:19:00;25.33;;;13.10;;
67941;SDS011;54731;42.600;23.476;2022-12-18T08:21:28;23.60;;;11.43;;
67941;SDS011;54731;42.600;23.476;2022-12-18T08:23:56;24.40;;;11.82;;
67941;SDS011;54731;42.600;23.476;2022-12-18T08:26:23;31.92;;;15.63;;
67941;SDS011;54731;42.600;23.476;2022-12-18T08:28:50;36.92;;;15.98;;
67941;SDS011;54731;42.600;23.476;2022-12-18T08:31:17;29.33;;;15.27;;
67941;SDS011;54731;42.600;23.476;2022-12-18T08:33:43;28.27;;;14.02;;
67941;SDS011;54731;42.600;23.476;2022-12-18T08:36:09;37.15;;;17.33;;
67941;SDS011;54731;42.600;23.476;2022-12-18T08:38:35;26.37;;;13.73;;
67941;SDS011;54731;42.600;23.476;2022-12-18T08:43:26;34.97;;;20.40;;
67941;SDS011;54731;42.600;23.476;2022-12-18T08:45:52;27.77;;;13.15;;
67941;SDS011;54731;42.600;23.476;2022-12-18T08:48:18;29.63;;;14.90;;
67941;SDS011;54731;42.600;23.476;2022-12-18T08:50:43;25.10;;;13.60;;
67941;SDS011;54731;42.600;23.476;2022-12-18T08:53:18;35.47;;;17.27;;
67941;SDS011;54731;42.600;23.476;2022-12-18T08:55:43;30.17;;;15.00;;
67941;SDS011;54731;42.600;23.476;2022-12-18T08:58:09;24.42;;;9.85;;
67941;SDS011;54731;42.600;23.476;2022-12-18T09:00:34;28.90;;;13.52;;
67941;SDS011;54731;42.600;23.476;2022-12-18T09:03:00;43.07;;;20.03;;
67941;SDS011;54731;42.600;23.476;2022-12-18T09:05:25;39.60;;;20.20;;
67941;SDS011;54731;42.600;23.476;2022-12-18T09:07:51;29.67;;;14.27;;
67941;SDS011;54731;42.600;23.476;2022-12-18T09:10:16;29.03;;;14.27;;
67941;SDS011;54731;42.600;23.476;2022-12-18T09:12:41;42.10;;;18.93;;
67941;SDS011;54731;42.600;23.476;2022-12-18T09:15:07;58.67;;;26.50;;
67941;SDS011;54731;42.600;23.476;2022-12-18T09:17:33;36.58;;;16.35;;
67941;SDS011;54731;42.600;23.476;2022-12-18T09:19:58;35.33;;;18.10;;
67941;SDS011;54731;42.600;23.476;2022-12-18T09:22:26;112.43;;;44.27;;
67941;SDS011;54731;42.600;23.476;2022-12-18T09:24:52;44.60;;;18.98;;
67941;SDS011;54731;42.600;23.476;2022-12-18T09:27:17;77.17;;;34.20;;
67941;SDS011;54731;42.600;23.476;2022-12-18T09:29:43;52.90;;;22.95;;
67941;SDS011;54731;42.600;23.476;2022-12-18T09:32:08;39.07;;;16.73;;
67941;SDS011;54731;42.600;23.476;2022-12-18T09:34:34;41.67;;;17.47;;
67941;SDS011;54731;42.600;23.476;2022-12-18T09:36:59;32.47;;;18.03;;
67941;SDS011;54731;42.600;23.476;2022-12-18T09:39:25;30.73;;;16.00;;
67941;SDS011;54731;42.600;23.476;2022-12-18T09:41:54;43.83;;;19.83;;
67941;SDS011;54731;42.600;23.476;2022-12-18T09:47:13;43.45;;;20.90;;
67941;SDS011;54731;42.600;23.476;2022-12-18T09:49:45;35.87;;;15.53;;
67941;SDS011;54731;42.600;23.476;2022-12-18T09:52:17;28.67;;;13.63;;
67941;SDS011;54731;42.600;23.476;2022-12-18T09:54:50;26.58;;;12.43;;
67941;SDS011;54731;42.600;23.476;2022-12-18T09:57:23;28.05;;;15.65;;
67941;SDS011;54731;42.600;23.476;2022-12-18T09:59:52;29.95;;;14.75;;
67941;SDS011;54731;42.600;23.476;2022-12-18T10:02:22;31.17;;;15.57;;
67941;SDS011;54731;42.600;23.476;2022-12-18T10:05:17;31.10;;;14.10;;
67941;SDS011;54731;42.600;23.476;2022-12-18T10:10:46;29.75;;;13.50;;
67941;SDS011;54731;42.600;23.476;2022-12-18T10:24:24;24.73;;;13.13;;
67941;SDS011;54731;42.600;23.476;2022-12-18T10:27:14;36.85;;;18.17;;
67941;SDS011;54731;42.600;23.476;2022-12-18T10:29:42;28.52;;;13.43;;
67941;SDS011;54731;42.600;23.476;2022-12-18T10:32:12;66.38;;;25.67;;
67941;SDS011;54731;42.600;23.476;2022-12-18T10:34:46;30.57;;;15.90;;
67941;SDS011;54731;42.600;23.476;2022-12-18T10:37:20;25.08;;;13.85;;
67941;SDS011;54731;42.600;23.476;2022-12-18T10:42:32;25.42;;;12.07;;
67941;SDS011;54731;42.600;23.476;2022-12-18T10:45:03;22.75;;;11.10;;
67941;SDS011;54731;42.600;23.476;2022-12-18T10:47:46;40.92;;;18.83;;
67941;SDS011;54731;42.600;23.476;2022-12-18T10:50:32;40.15;;;19.13;;
67941;SDS011;54731;42.600;23.476;2022-12-18T10:53:00;25.45;;;13.93;;
67941;SDS011;54731;42.600;23.476;2022-12-18T10:55:30;38.92;;;18.50;;
67941;SDS011;54731;42.600;23.476;2022-12-18T10:58:13;36.57;;;16.83;;
67941;SDS011;54731;42.600;23.476;2022-12-18T11:00:39;31.50;;;15.98;;
67941;SDS011;54731;42.600;23.476;2022-12-18T11:03:07;30.58;;;15.70;;
67941;SDS011;54731;42.600;23.476;2022-12-18T11:06:07;35.80;;;17.33;;
67941;SDS011;54731;42.600;23.476;2022-12-18T11:08:45;30.60;;;16.90;;
67941;SDS011;54731;42.600;23.476;2022-12-18T11:11:23;29.65;;;16.23;;
67941;SDS011;54731;42.600;23.476;2022-12-18T11:16:36;35.20;;;15.30;;
67941;SDS011;54731;42.600;23.476;2022-12-18T11:21:55;48.13;;;20.30;;
67941;SDS011;54731;42.600;23.476;2022-12-18T11:24:30;46.28;;;19.77;;
67941;SDS011;54731;42.600;23.476;2022-12-18T11:26:58;31.40;;;15.40;;
67941;SDS011;54731;42.600;23.476;2022-12-18T11:29:40;39.53;;;15.63;;
67941;SDS011;54731;42.600;23.476;2022-12-18T11:32:19;33.23;;;15.50;;
67941;SDS011;54731;42.600;23.476;2022-12-18T11:34:54;32.90;;;14.13;;
67941;SDS011;54731;42.600;23.476;2022-12-18T11:37:42;35.70;;;14.05;;
67941;SDS011;54731;42.600;23.476;2022-12-18T11:40:14;20.95;;;11.15;;
67941;SDS011;54731;42.600;23.476;2022-12-18T11:42:54;49.50;;;16.77;;
67941;SDS011;54731;42.600;23.476;2022-12-18T11:45:55;35.97;;;14.52;;
67941;SDS011;54731;42.600;23.476;2022-12-18T11:48:27;35.00;;;14.70;;
67941;SDS011;54731;42.600;23.476;2022-12-18T11:50:58;26.77;;;11.43;;
67941;SDS011;54731;42.600;23.476;2022-12-18T11:53:26;29.15;;;13.32;;
67941;SDS011;54731;42.600;23.476;2022-12-18T11:56:15;74.67;;;32.40;;
67941;SDS011;54731;42.600;23.476;2022-12-18T11:59:15;23.58;;;12.07;;
67941;SDS011;54731;42.600;23.476;2022-12-18T12:05:01;37.60;;;16.60;;
67941;SDS011;54731;42.600;23.476;2022-12-18T12:10:28;23.33;;;11.23;;
67941;SDS011;54731;42.600;23.476;2022-12-18T12:21:39;20.00;;;9.85;;
67941;SDS011;54731;42.600;23.476;2022-12-18T12:26:40;24.48;;;11.32;;
67941;SDS011;54731;42.600;23.476;2022-12-18T12:35:03;19.90;;;8.98;;
67941;SDS011;54731;42.600;23.476;2022-12-18T12:40:23;18.38;;;8.65;;
67941;SDS011;54731;42.600;23.476;2022-12-18T12:42:55;18.88;;;9.32;;
67941;SDS011;54731;42.600;23.476;2022-12-18T12:45:38;21.15;;;11.05;;
67941;SDS011;54731;42.600;23.476;2022-12-18T12:48:14;25.17;;;10.52;;
67941;SDS011;54731;42.600;23.476;2022-12-18T12:50:44;23.13;;;11.00;;
67941;SDS011;54731;42.600;23.476;2022-12-18T12:53:13;24.65;;;12.05;;
67941;SDS011;54731;42.600;23.476;2022-12-18T12:55:47;26.25;;;12.18;;
67941;SDS011;54731;42.600;23.476;2022-12-18T12:58:28;23.83;;;12.73;;
67941;SDS011;54731;42.600;23.476;2022-12-18T13:06:32;35.83;;;14.73;;
67941;SDS011;54731;42.600;23.476;2022-12-18T13:09:18;23.42;;;10.95;;
67941;SDS011;54731;42.600;23.476;2022-12-18T13:11:44;22.07;;;10.23;;
67941;SDS011;54731;42.600;23.476;2022-12-18T13:14:19;30.70;;;14.43;;
67941;SDS011;54731;42.600;23.476;2022-12-18T13:16:51;21.33;;;10.10;;
67941;SDS011;54731;42.600;23.476;2022-12-18T13:19:23;22.27;;;11.27;;
67941;SDS011;54731;42.600;23.476;2022-12-18T13:21:55;21.50;;;11.13;;
67941;SDS011;54731;42.600;23.476;2022-12-18T13:24:30;28.50;;;14.23;;
67941;SDS011;54731;42.600;23.476;2022-12-18T13:26:56;24.55;;;10.70;;
67941;SDS011;54731;42.600;23.476;2022-12-18T13:29:43;102.43;;;34.63;;
67941;SDS011;54731;42.600;23.476;2022-12-18T13:32:23;30.77;;;13.90;;
67941;SDS011;54731;42.600;23.476;2022-12-18T13:37:53;34.63;;;15.33;;
67941;SDS011;54731;42.600;23.476;2022-12-18T13:40:38;101.57;;;28.60;;
67941;SDS011;54731;42.600;23.476;2022-12-18T13:46:17;35.75;;;15.65;;
67941;SDS011;54731;42.600;23.476;2022-12-18T13:49:18;58.65;;;19.80;;
67941;SDS011;54731;42.600;23.476;2022-12-18T13:51:50;38.42;;;15.23;;
67941;SDS011;54731;42.600;23.476;2022-12-18T13:59:55;25.67;;;11.73;;
67941;SDS011;54731;42.600;23.476;2022-12-18T14:02:22;26.52;;;12.82;;
67941;SDS011;54731;42.600;23.476;2022-12-18T14:04:52;28.30;;;14.48;;
67941;SDS011;54731;42.600;23.476;2022-12-18T14:07:19;122.65;;;34.45;;
67941;SDS011;54731;42.600;23.476;2022-12-18T14:09:50;124.22;;;33.78;;
67941;SDS011;54731;42.600;23.476;2022-12-18T14:12:21;37.47;;;15.75;;
67941;SDS011;54731;42.600;23.476;2022-12-18T14:14:50;28.85;;;12.73;;
67941;SDS011;54731;42.600;23.476;2022-12-18T14:17:17;25.63;;;12.20;;
67941;SDS011;54731;42.600;23.476;2022-12-18T14:19:44;37.67;;;17.30;;
67941;SDS011;54731;42.600;23.476;2022-12-18T14:22:20;31.73;;;14.50;;
67941;SDS011;54731;42.600;23.476;2022-12-18T14:25:04;32.28;;;13.18;;
67941;SDS011;54731;42.600;23.476;2022-12-18T14:27:41;29.02;;;13.88;;
67941;SDS011;54731;42.600;23.476;2022-12-18T14:35:30;30.13;;;12.77;;
67941;SDS011;54731;42.600;23.476;2022-12-18T14:38:09;101.80;;;31.45;;
67941;SDS011;54731;42.600;23.476;2022-12-18T14:40:36;61.38;;;25.15;;
67941;SDS011;54731;42.600;23.476;2022-12-18T14:43:01;37.07;;;16.10;;
67941;SDS011;54731;42.600;23.476;2022-12-18T14:45:37;76.78;;;27.10;;
67941;SDS011;54731;42.600;23.476;2022-12-18T14:48:08;60.60;;;20.67;;
67941;SDS011;54731;42.600;23.476;2022-12-18T14:50:37;62.72;;;23.95;;
67941;SDS011;54731;42.600;23.476;2022-12-18T14:53:03;84.22;;;30.35;;
67941;SDS011;54731;42.600;23.476;2022-12-18T14:55:29;103.00;;;36.30;;
67941;SDS011;54731;42.600;23.476;2022-12-18T14:57:56;99.87;;;31.27;;
67941;SDS011;54731;42.600;23.476;2022-12-18T15:00:23;30.23;;;11.73;;
67941;SDS011;54731;42.600;23.476;2022-12-18T15:02:52;28.45;;;12.50;;
67941;SDS011;54731;42.600;23.476;2022-12-18T15:05:20;23.60;;;10.85;;
67941;SDS011;54731;42.600;23.476;2022-12-18T15:07:52;25.13;;;10.85;;
67941;SDS011;54731;42.600;23.476;2022-12-18T15:10:23;20.63;;;9.80;;
67941;SDS011;54731;42.600;23.476;2022-12-18T15:13:20;58.95;;;20.23;;
67941;SDS011;54731;42.600;23.476;2022-12-18T15:15:47;42.15;;;15.52;;
67941;SDS011;54731;42.600;23.476;2022-12-18T15:18:18;28.52;;;12.35;;
67941;SDS011;54731;42.600;23.476;2022-12-18T15:20:46;34.25;;;14.13;;
67941;SDS011;54731;42.600;23.476;2022-12-18T15:23:45;22.85;;;10.20;;
67941;SDS011;54731;42.600;23.476;2022-12-18T15:26:18;25.20;;;11.55;;
67941;SDS011;54731;42.600;23.476;2022-12-18T15:36:23;61.33;;;18.57;;
67941;SDS011;54731;42.600;23.476;2022-12-18T15:38:54;29.33;;;11.77;;
67941;SDS011;54731;42.600;23.476;2022-12-18T15:41:22;25.92;;;11.38;;
67941;SDS011;54731;42.600;23.476;2022-12-18T15:43:49;32.35;;;13.00;;
67941;SDS011;54731;42.600;23.476;2022-12-18T15:46:23;29.00;;;11.45;;
67941;SDS011;54731;42.600;23.476;2022-12-18T15:48:50;20.03;;;9.83;;
67941;SDS011;54731;42.600;23.476;2022-12-18T15:53:46;32.05;;;14.70;;
67941;SDS011;54731;42.600;23.476;2022-12-18T15:56:28;26.63;;;11.13;;
67941;SDS011;54731;42.600;23.476;2022-12-18T15:59:19;23.00;;;10.57;;
67941;SDS011;54731;42.600;23.476;2022-12-18T16:01:49;28.97;;;12.70;;
67941;SDS011;54731;42.600;23.476;2022-12-18T16:04:17;34.50;;;18.48;;
67941;SDS011;54731;42.600;23.476;2022-12-18T16:06:43;28.15;;;15.10;;
67941;SDS011;54731;42.600;23.476;2022-12-18T16:09:09;25.47;;;11.40;;
67941;SDS011;54731;42.600;23.476;2022-12-18T16:11:35;22.00;;;10.40;;
67941;SDS011;54731;42.600;23.476;2022-12-18T16:14:02;26.67;;;11.43;;
67941;SDS011;54731;42.600;23.476;2022-12-18T16:16:27;21.80;;;10.43;;
67941;SDS011;54731;42.600;23.476;2022-12-18T16:18:52;25.63;;;12.47;;
67941;SDS011;54731;42.600;23.476;2022-12-18T16:21:18;25.17;;;12.60;;
67941;SDS011;54731;42.600;23.476;2022-12-18T16:23:43;26.27;;;11.57;;
67941;SDS011;54731;42.600;23.476;2022-12-18T16:26:08;35.75;;;14.93;;
67941;SDS011;54731;42.600;23.476;2022-12-18T16:28:33;22.23;;;10.80;;
67941;SDS011;54731;42.600;23.476;2022-12-18T16:30:59;32.57;;;14.27;;
67941;SDS011;54731;42.600;23.476;2022-12-18T16:33:24;61.73;;;27.47;;